Time;durP1;ratioP1;P1;durP2;ratioP2;P2;SDS_P1;SDS_P2;PMS_P1;PMS_P2;Temp;Humidity;BMP_temperature;BMP_pressure;BME280_temperature;BME280_humidity;BME280_pressure;Samples;Min_cycle;Max_cycle;Signal;HPM_P1;HPM_P2
2022/01/15 00:01:02;;;;;;;23.50;13.37;;;;;;;;;;5015470;28;20435;-39
2022/01/15 00:03:29;;;;;;;20.93;13.03;;;;;;;;;;5003639;28;20422;-39
2022/01/15 00:05:55;;;;;;;22.87;13.40;;;;;;;;;;5007298;28;20955;-38
2022/01/15 00:08:21;;;;;;;21.73;13.80;;;;;;;;;;4996248;28;20754;-39
2022/01/15 00:10:47;;;;;;;19.67;12.87;;;;;;;;;;5017165;28;20458;-40
2022/01/15 00:13:24;;;;;;;18.40;12.77;;;;;;;;;;5023648;28;20431;-37
2022/01/15 00:16:01;;;;;;;25.60;13.57;;;;;;;;;;5019823;28;20418;-41
2022/01/15 00:21:28;;;;;;;26.13;15.13;;;;;;;;;;4987953;28;20518;-39
2022/01/15 00:23:55;;;;;;;28.43;16.03;;;;;;;;;;5020650;28;20550;-40
2022/01/15 00:26:21;;;;;;;23.23;15.33;;;;;;;;;;4999259;28;20461;-40
2022/01/15 00:28:47;;;;;;;28.03;16.17;;;;;;;;;;5022237;28;20496;-39
2022/01/15 00:31:13;;;;;;;25.67;15.93;;;;;;;;;;5003180;28;21177;-37
2022/01/15 00:33:39;;;;;;;23.33;14.83;;;;;;;;;;5019768;28;20507;-37
2022/01/15 00:36:06;;;;;;;26.80;14.93;;;;;;;;;;5018127;28;21115;-37
2022/01/15 00:38:32;;;;;;;23.40;14.57;;;;;;;;;;5021936;28;20559;-39
2022/01/15 00:40:58;;;;;;;20.63;13.53;;;;;;;;;;5008839;28;20454;-41
2022/01/15 00:43:24;;;;;;;21.27;12.97;;;;;;;;;;5016277;28;20434;-38
2022/01/15 00:45:50;;;;;;;17.77;11.53;;;;;;;;;;4999074;28;20501;-38
2022/01/15 00:48:16;;;;;;;21.43;12.53;;;;;;;;;;5015333;28;20534;-39
2022/01/15 00:50:43;;;;;;;20.83;12.23;;;;;;;;;;5020806;28;20472;-39
2022/01/15 00:53:09;;;;;;;19.37;11.97;;;;;;;;;;5023217;28;20502;-39
2022/01/15 00:55:35;;;;;;;21.83;13.33;;;;;;;;;;4998971;28;20435;-40
2022/01/15 00:58:02;;;;;;;23.43;12.73;;;;;;;;;;5012663;28;20862;-39
2022/01/15 01:00:28;;;;;;;24.13;13.73;;;;;;;;;;5002873;28;20434;-40
2022/01/15 01:02:57;;;;;;;21.87;13.57;;;;;;;;;;5001193;28;21228;-38
2022/01/15 01:05:23;;;;;;;20.67;12.83;;;;;;;;;;5003222;28;20423;-38
2022/01/15 01:07:50;;;;;;;17.50;10.70;;;;;;;;;;5010581;28;20427;-37
2022/01/15 01:21:12;;;;;;;14.17;9.67;;;;;;;;;;5016422;28;20410;-38
2022/01/15 01:23:38;;;;;;;15.77;9.77;;;;;;;;;;5021282;28;20526;-36
2022/01/15 01:26:12;;;;;;;14.80;9.53;;;;;;;;;;5004716;28;20908;-39
2022/01/15 01:28:43;;;;;;;12.70;8.77;;;;;;;;;;5002622;28;20430;-38
2022/01/15 01:31:22;;;;;;;12.93;9.00;;;;;;;;;;5004158;28;20459;-36
2022/01/15 01:33:53;;;;;;;13.33;9.13;;;;;;;;;;5007073;28;20508;-36
2022/01/15 01:36:42;;;;;;;12.07;8.57;;;;;;;;;;4999998;28;20424;-40
2022/01/15 01:39:14;;;;;;;16.80;10.60;;;;;;;;;;5021742;28;20534;-38
2022/01/15 01:41:48;;;;;;;14.13;9.30;;;;;;;;;;5019972;28;21265;-40
2022/01/15 01:44:18;;;;;;;11.40;8.13;;;;;;;;;;5003577;28;20419;-40
2022/01/15 01:46:51;;;;;;;15.80;9.70;;;;;;;;;;5007414;28;20897;-40
2022/01/15 01:49:19;;;;;;;14.27;9.23;;;;;;;;;;5005902;28;22429;-36
2022/01/15 01:51:46;;;;;;;13.50;9.43;;;;;;;;;;5007190;28;20435;-38
2022/01/15 01:54:16;;;;;;;17.97;10.17;;;;;;;;;;5003518;28;20427;-38
2022/01/15 01:56:42;;;;;;;14.50;10.00;;;;;;;;;;5005206;28;20865;-37
2022/01/15 01:59:09;;;;;;;16.20;9.63;;;;;;;;;;5005798;28;20963;-38
2022/01/15 02:01:37;;;;;;;15.20;9.80;;;;;;;;;;5006808;28;21017;-39
2022/01/15 02:04:03;;;;;;;15.03;9.33;;;;;;;;;;5007679;28;20517;-36
2022/01/15 02:06:32;;;;;;;15.43;10.23;;;;;;;;;;5004021;28;20981;-36
2022/01/15 02:08:59;;;;;;;21.93;13.87;;;;;;;;;;5024020;28;20790;-39
2022/01/15 02:11:26;;;;;;;24.10;13.77;;;;;;;;;;5004853;28;20562;-39
2022/01/15 02:13:52;;;;;;;13.80;7.90;;;;;;;;;;5006712;28;20521;-37
2022/01/15 02:16:20;;;;;;;20.03;11.53;;;;;;;;;;5000974;28;20431;-37
2022/01/15 02:18:47;;;;;;;13.20;8.60;;;;;;;;;;5008646;28;20419;-40
2022/01/15 02:23:44;;;;;;;12.93;7.67;;;;;;;;;;5022659;28;21196;-38
2022/01/15 02:26:30;;;;;;;13.23;8.83;;;;;;;;;;5013030;28;20434;-40
2022/01/15 02:28:58;;;;;;;11.80;8.43;;;;;;;;;;4998764;28;20910;-37
2022/01/15 02:31:25;;;;;;;12.43;8.23;;;;;;;;;;5002995;28;20549;-39
2022/01/15 02:33:52;;;;;;;12.33;8.10;;;;;;;;;;5016292;28;20725;-39
2022/01/15 02:36:20;;;;;;;10.97;8.37;;;;;;;;;;5013170;28;20849;-37
2022/01/15 02:38:47;;;;;;;12.57;8.97;;;;;;;;;;5019293;28;21027;-40
2022/01/15 02:41:13;;;;;;;11.30;8.70;;;;;;;;;;5020674;28;20760;-37
2022/01/15 02:43:39;;;;;;;12.67;9.37;;;;;;;;;;4999432;28;20438;-37
2022/01/15 02:46:35;;;;;;;13.03;9.93;;;;;;;;;;5010908;28;20755;-38
2022/01/15 02:49:03;;;;;;;13.87;11.33;;;;;;;;;;4992752;28;20652;-40
2022/01/15 02:51:30;;;;;;;12.77;9.93;;;;;;;;;;5011518;28;20427;-39
2022/01/15 02:53:56;;;;;;;14.20;11.40;;;;;;;;;;5015276;28;20703;-40
2022/01/15 02:56:27;;;;;;;12.97;10.13;;;;;;;;;;5015870;28;20416;-35
2022/01/15 02:58:53;;;;;;;13.80;10.90;;;;;;;;;;4999645;28;20462;-37
2022/01/15 03:01:19;;;;;;;14.37;10.50;;;;;;;;;;5014128;28;20429;-39
2022/01/15 03:03:46;;;;;;;18.53;12.53;;;;;;;;;;5004662;28;20422;-40
2022/01/15 03:06:13;;;;;;;15.83;11.80;;;;;;;;;;5011249;28;20970;-37
2022/01/15 03:08:45;;;;;;;13.50;10.80;;;;;;;;;;4997717;28;20423;-38
2022/01/15 03:11:12;;;;;;;16.70;13.03;;;;;;;;;;5004479;28;20754;-36
2022/01/15 03:13:39;;;;;;;15.27;12.20;;;;;;;;;;4998281;28;20841;-40
2022/01/15 03:16:06;;;;;;;14.90;13.23;;;;;;;;;;5008228;28;20539;-39
2022/01/15 03:18:32;;;;;;;17.37;13.60;;;;;;;;;;4999013;28;21407;-39
2022/01/15 03:20:58;;;;;;;18.77;14.30;;;;;;;;;;4999270;28;20432;-36
2022/01/15 03:23:24;;;;;;;19.77;13.17;;;;;;;;;;5011677;28;20893;-40
2022/01/15 03:25:50;;;;;;;17.63;12.13;;;;;;;;;;4993875;28;20897;-39
2022/01/15 03:28:16;;;;;;;16.77;11.60;;;;;;;;;;5011532;28;21333;-38
2022/01/15 03:30:43;;;;;;;19.77;14.47;;;;;;;;;;5018405;28;21153;-36
2022/01/15 03:33:09;;;;;;;18.80;12.67;;;;;;;;;;4992819;28;20824;-36
2022/01/15 03:35:35;;;;;;;14.10;12.50;;;;;;;;;;4993901;28;20983;-40
2022/01/15 03:38:02;;;;;;;13.53;10.33;;;;;;;;;;5016263;28;20950;-38
2022/01/15 03:40:28;;;;;;;11.63;9.27;;;;;;;;;;5014877;28;20434;-37
2022/01/15 03:42:54;;;;;;;15.43;11.43;;;;;;;;;;4998425;28;20422;-38
2022/01/15 03:45:21;;;;;;;16.30;12.43;;;;;;;;;;4997939;28;21178;-35
2022/01/15 03:47:47;;;;;;;18.20;13.80;;;;;;;;;;4997877;28;20418;-37
2022/01/15 03:50:15;;;;;;;15.23;13.30;;;;;;;;;;5017990;28;20457;-40
2022/01/15 03:52:41;;;;;;;19.40;16.17;;;;;;;;;;5012335;28;20427;-37
2022/01/15 03:55:08;;;;;;;19.67;15.03;;;;;;;;;;4996927;28;20491;-38
2022/01/15 03:57:35;;;;;;;18.50;15.70;;;;;;;;;;4996991;28;20446;-40
2022/01/15 04:00:01;;;;;;;16.20;12.77;;;;;;;;;;5004045;28;20427;-36
2022/01/15 04:02:28;;;;;;;16.93;14.67;;;;;;;;;;5015624;28;20523;-38
2022/01/15 04:04:54;;;;;;;17.83;14.00;;;;;;;;;;4990774;28;21248;-36
2022/01/15 04:07:20;;;;;;;14.73;13.03;;;;;;;;;;4992806;28;20457;-36
2022/01/15 04:09:46;;;;;;;14.93;12.43;;;;;;;;;;4995355;28;20577;-40
2022/01/15 04:12:12;;;;;;;17.07;13.73;;;;;;;;;;4999437;28;21400;-37
2022/01/15 04:14:38;;;;;;;15.33;12.97;;;;;;;;;;5000634;28;20419;-37
2022/01/15 04:17:04;;;;;;;19.73;13.83;;;;;;;;;;4993597;28;20418;-39
2022/01/15 04:19:33;;;;;;;16.27;12.33;;;;;;;;;;4999981;28;20446;-37
2022/01/15 04:21:59;;;;;;;14.53;11.83;;;;;;;;;;5000296;28;20646;-39
2022/01/15 04:24:25;;;;;;;19.20;14.17;;;;;;;;;;5011278;28;20427;-39
2022/01/15 04:26:51;;;;;;;16.00;12.50;;;;;;;;;;5001079;28;20515;-37
2022/01/15 04:29:17;;;;;;;15.80;12.97;;;;;;;;;;5008504;28;20736;-35
2022/01/15 04:31:51;;;;;;;17.80;14.60;;;;;;;;;;5010568;28;20427;-39
2022/01/15 04:34:22;;;;;;;18.40;14.33;;;;;;;;;;5004576;28;20416;-37
2022/01/15 04:36:50;;;;;;;19.53;15.67;;;;;;;;;;5012057;28;20892;-41
2022/01/15 04:39:16;;;;;;;18.27;13.10;;;;;;;;;;4995005;28;20465;-40
2022/01/15 04:41:42;;;;;;;18.97;14.13;;;;;;;;;;5010011;28;20446;-36
2022/01/15 04:44:08;;;;;;;20.90;13.87;;;;;;;;;;4996927;28;20473;-37
2022/01/15 04:46:35;;;;;;;15.40;12.43;;;;;;;;;;4995986;28;20427;-40
2022/01/15 04:49:01;;;;;;;15.67;11.97;;;;;;;;;;4997020;28;20708;-37
2022/01/15 04:51:27;;;;;;;15.47;11.47;;;;;;;;;;4995262;28;20454;-37
2022/01/15 04:53:54;;;;;;;17.20;12.20;;;;;;;;;;5001284;28;20414;-36
2022/01/15 04:56:20;;;;;;;16.67;12.47;;;;;;;;;;4998729;28;20500;-39
2022/01/15 04:58:46;;;;;;;15.83;12.33;;;;;;;;;;4995187;28;20438;-39
2022/01/15 05:01:13;;;;;;;18.47;12.60;;;;;;;;;;5003810;28;20537;-36
2022/01/15 05:03:39;;;;;;;15.30;12.60;;;;;;;;;;5000622;28;21128;-37
2022/01/15 05:06:05;;;;;;;22.17;13.60;;;;;;;;;;4998986;28;20418;-38
2022/01/15 05:08:32;;;;;;;16.93;13.20;;;;;;;;;;5003647;28;20863;-39
2022/01/15 05:10:59;;;;;;;16.67;12.40;;;;;;;;;;5009446;28;20569;-38
2022/01/15 05:13:28;;;;;;;15.30;12.57;;;;;;;;;;5003918;28;20427;-38
2022/01/15 05:15:55;;;;;;;15.00;10.53;;;;;;;;;;5008451;28;20539;-38
2022/01/15 05:18:21;;;;;;;17.90;11.30;;;;;;;;;;5011787;28;20458;-38
2022/01/15 05:20:48;;;;;;;22.03;11.37;;;;;;;;;;5006703;28;20418;-39
2022/01/15 05:23:14;;;;;;;15.97;11.67;;;;;;;;;;5008749;28;20929;-40
2022/01/15 05:25:41;;;;;;;16.13;11.20;;;;;;;;;;5019291;28;20466;-34
2022/01/15 05:28:08;;;;;;;16.50;11.70;;;;;;;;;;5020057;28;21455;-35
2022/01/15 05:30:34;;;;;;;14.30;10.93;;;;;;;;;;5003168;28;20685;-37
2022/01/15 05:33:00;;;;;;;15.93;12.10;;;;;;;;;;5020949;28;20418;-38
2022/01/15 05:35:27;;;;;;;19.07;11.57;;;;;;;;;;5003945;28;20419;-37
2022/01/15 05:37:57;;;;;;;17.93;12.83;;;;;;;;;;5012342;28;20460;-36
2022/01/15 05:40:25;;;;;;;16.33;12.73;;;;;;;;;;5003507;28;20447;-36
2022/01/15 05:42:52;;;;;;;16.70;13.67;;;;;;;;;;5008276;28;20546;-37
2022/01/15 05:45:19;;;;;;;22.20;12.90;;;;;;;;;;5020589;28;20515;-39
2022/01/15 05:47:45;;;;;;;17.43;12.60;;;;;;;;;;5008825;28;20436;-37
2022/01/15 05:50:11;;;;;;;18.13;13.23;;;;;;;;;;5007607;28;20627;-38
2022/01/15 05:52:38;;;;;;;20.00;13.73;;;;;;;;;;5021367;28;20471;-38
2022/01/15 05:55:04;;;;;;;17.00;12.60;;;;;;;;;;5004603;28;20427;-38
2022/01/15 05:57:33;;;;;;;17.50;12.93;;;;;;;;;;5007340;28;20427;-37
2022/01/15 05:59:59;;;;;;;17.27;13.33;;;;;;;;;;5015293;28;20446;-36
2022/01/15 06:02:27;;;;;;;18.50;13.17;;;;;;;;;;4997863;28;20614;-38
2022/01/15 06:04:54;;;;;;;16.97;12.57;;;;;;;;;;5002926;28;20434;-37
2022/01/15 06:07:20;;;;;;;18.03;12.30;;;;;;;;;;5022177;28;20426;-36
2022/01/15 06:09:46;;;;;;;15.67;11.67;;;;;;;;;;5020791;28;20450;-37
2022/01/15 06:12:12;;;;;;;13.63;10.70;;;;;;;;;;5019809;28;20423;-36
2022/01/15 06:14:41;;;;;;;14.70;11.07;;;;;;;;;;5014769;28;20474;-39
2022/01/15 06:17:08;;;;;;;17.10;12.50;;;;;;;;;;5012673;28;21041;-38
2022/01/15 06:19:35;;;;;;;14.53;12.00;;;;;;;;;;5018924;28;20430;-36
2022/01/15 06:22:01;;;;;;;16.63;11.40;;;;;;;;;;5017900;28;20600;-37
2022/01/15 06:24:30;;;;;;;15.47;11.93;;;;;;;;;;4999598;28;20431;-38
2022/01/15 06:26:56;;;;;;;16.17;12.10;;;;;;;;;;5018279;28;20442;-37
2022/01/15 06:29:22;;;;;;;12.10;10.50;;;;;;;;;;5058724;28;20418;-35
2022/01/15 06:31:49;;;;;;;13.50;10.90;;;;;;;;;;5002652;28;20447;-36
2022/01/15 06:34:15;;;;;;;12.77;10.70;;;;;;;;;;4999889;28;20484;-39
2022/01/15 06:36:41;;;;;;;11.57;10.37;;;;;;;;;;5014731;28;20512;-36
2022/01/15 06:39:07;;;;;;;13.83;10.63;;;;;;;;;;5005324;28;20543;-37
2022/01/15 06:41:33;;;;;;;13.13;10.30;;;;;;;;;;5007607;28;20430;-36
2022/01/15 06:43:59;;;;;;;14.33;9.63;;;;;;;;;;5010452;28;20581;-36
2022/01/15 06:46:25;;;;;;;12.13;10.33;;;;;;;;;;5001430;28;20461;-36
2022/01/15 06:48:54;;;;;;;14.37;11.37;;;;;;;;;;5006513;28;20437;-38
2022/01/15 06:51:20;;;;;;;19.70;12.20;;;;;;;;;;5004612;28;21111;-36
2022/01/15 06:53:46;;;;;;;17.57;13.03;;;;;;;;;;5016890;28;20803;-37
2022/01/15 06:56:12;;;;;;;19.50;13.00;;;;;;;;;;5000186;28;20419;-36
2022/01/15 06:58:41;;;;;;;15.60;11.57;;;;;;;;;;5000148;28;20974;-39
2022/01/15 07:01:07;;;;;;;14.73;11.47;;;;;;;;;;5018365;28;21318;-35
2022/01/15 07:03:35;;;;;;;19.63;14.10;;;;;;;;;;4995584;28;20515;-38
2022/01/15 07:06:02;;;;;;;17.27;13.87;;;;;;;;;;4999475;28;20440;-38
2022/01/15 07:08:28;;;;;;;16.97;13.60;;;;;;;;;;5003394;28;20508;-37
2022/01/15 07:10:54;;;;;;;20.37;14.53;;;;;;;;;;5006853;28;20494;-39
2022/01/15 07:13:20;;;;;;;20.43;16.97;;;;;;;;;;5020940;28;20500;-40
2022/01/15 07:15:49;;;;;;;25.50;18.33;;;;;;;;;;5003856;28;20576;-39
2022/01/15 07:18:16;;;;;;;28.07;18.53;;;;;;;;;;5018612;28;20586;-41
2022/01/15 07:20:43;;;;;;;24.27;17.80;;;;;;;;;;5015405;28;20442;-40
2022/01/15 07:23:09;;;;;;;24.43;16.60;;;;;;;;;;5020263;28;21218;-40
2022/01/15 07:25:35;;;;;;;24.77;17.33;;;;;;;;;;5013950;28;20433;-40
2022/01/15 07:28:01;;;;;;;29.87;18.13;;;;;;;;;;5013524;28;20435;-39
2022/01/15 07:30:30;;;;;;;22.10;15.80;;;;;;;;;;4998003;28;21312;-39
2022/01/15 07:32:56;;;;;;;20.33;15.93;;;;;;;;;;5012478;28;21072;-39
2022/01/15 07:35:23;;;;;;;23.07;15.97;;;;;;;;;;4998531;28;20441;-40
2022/01/15 07:37:49;;;;;;;20.93;17.17;;;;;;;;;;4996551;28;20474;-40
2022/01/15 07:40:15;;;;;;;21.70;16.70;;;;;;;;;;4998335;28;20570;-39
2022/01/15 07:42:41;;;;;;;19.23;14.93;;;;;;;;;;5003984;28;20435;-40
2022/01/15 07:45:12;;;;;;;20.43;13.77;;;;;;;;;;5002264;28;20484;-41
2022/01/15 07:47:40;;;;;;;18.40;13.93;;;;;;;;;;5000789;28;20427;-37
2022/01/15 07:50:08;;;;;;;17.37;13.57;;;;;;;;;;5002810;28;21323;-40
2022/01/15 07:52:34;;;;;;;21.60;13.63;;;;;;;;;;5004472;28;21146;-41
2022/01/15 07:55:01;;;;;;;17.63;12.93;;;;;;;;;;5000996;28;20430;-38
2022/01/15 07:57:28;;;;;;;19.10;11.57;;;;;;;;;;4997752;28;20531;-41
2022/01/15 07:59:54;;;;;;;18.33;11.77;;;;;;;;;;4998719;28;20439;-42
2022/01/15 08:02:20;;;;;;;16.40;11.50;;;;;;;;;;5008983;28;21392;-39
2022/01/15 08:04:46;;;;;;;17.53;11.37;;;;;;;;;;5000677;28;20463;-37
2022/01/15 08:07:12;;;;;;;11.37;8.23;;;;;;;;;;5113864;22;20531;-85
2022/01/15 08:09:39;;;;;;;12.40;8.63;;;;;;;;;;5069090;28;20413;-86
2022/01/15 08:12:05;;;;;;;16.73;10.00;;;;;;;;;;5069398;28;21524;-86
2022/01/15 08:14:31;;;;;;;15.97;8.80;;;;;;;;;;5066785;28;20423;-85
2022/01/15 08:16:57;;;;;;;15.23;8.40;;;;;;;;;;5068400;28;20497;-85
2022/01/15 08:19:23;;;;;;;22.13;8.97;;;;;;;;;;5067149;28;22300;-84
2022/01/15 08:21:49;;;;;;;11.63;4.87;;;;;;;;;;5070582;28;20409;-85
2022/01/15 08:24:16;;;;;;;17.40;7.20;;;;;;;;;;5066061;28;21019;-84
2022/01/15 08:26:42;;;;;;;23.17;6.10;;;;;;;;;;5071260;28;20424;-85
2022/01/15 08:29:08;;;;;;;15.30;5.70;;;;;;;;;;5074855;28;20451;-84
2022/01/15 08:31:34;;;;;;;21.23;11.53;;;;;;;;;;5071250;28;20531;-85
2022/01/15 08:34:00;;;;;;;13.93;7.93;;;;;;;;;;5073861;28;20432;-85
2022/01/15 08:36:27;;;;;;;14.67;5.63;;;;;;;;;;5073748;28;21486;-85
2022/01/15 08:38:54;;;;;;;19.77;6.97;;;;;;;;;;5076256;28;20422;-85
2022/01/15 08:41:20;;;;;;;11.63;5.47;;;;;;;;;;5070930;28;20428;-85
2022/01/15 08:43:46;;;;;;;14.27;6.00;;;;;;;;;;5072796;28;21246;-85
2022/01/15 08:46:13;;;;;;;13.70;5.50;;;;;;;;;;5073151;28;20462;-86
2022/01/15 08:48:39;;;;;;;22.73;4.77;;;;;;;;;;5075711;28;21153;-85
2022/01/15 08:51:05;;;;;;;20.60;4.70;;;;;;;;;;5068556;28;21230;-84
2022/01/15 08:53:31;;;;;;;14.23;4.70;;;;;;;;;;5075075;28;21589;-86
2022/01/15 08:55:58;;;;;;;14.10;4.70;;;;;;;;;;5076339;28;20964;-85
2022/01/15 08:58:25;;;;;;;14.23;4.73;;;;;;;;;;5072318;28;21324;-84
2022/01/15 09:00:54;;;;;;;11.40;4.33;;;;;;;;;;5072264;28;20428;-85
2022/01/15 09:03:20;;;;;;;26.97;7.30;;;;;;;;;;5085632;28;20443;-85
2022/01/15 09:05:47;;;;;;;17.73;7.37;;;;;;;;;;5085610;28;21111;-84
2022/01/15 09:08:13;;;;;;;22.33;7.33;;;;;;;;;;5073274;28;21330;-85
2022/01/15 09:10:41;;;;;;;15.03;7.00;;;;;;;;;;5075447;28;21467;-85
2022/01/15 09:13:11;;;;;;;16.83;6.40;;;;;;;;;;5076744;28;20425;-85
2022/01/15 09:15:37;;;;;;;16.83;6.27;;;;;;;;;;5069670;28;20520;-85
2022/01/15 09:18:03;;;;;;;14.87;4.83;;;;;;;;;;5074110;28;20453;-84
2022/01/15 09:20:30;;;;;;;17.57;4.57;;;;;;;;;;5073825;28;20429;-85
2022/01/15 09:22:56;;;;;;;13.17;5.70;;;;;;;;;;5069084;28;21006;-85
2022/01/15 09:25:22;;;;;;;13.30;6.67;;;;;;;;;;5067187;28;20782;-85
2022/01/15 09:30:33;;;;;;;14.23;7.93;;;;;;;;;;5071679;28;20967;-85
2022/01/15 09:33:00;;;;;;;12.13;7.70;;;;;;;;;;5070327;28;21227;-85
2022/01/15 09:35:29;;;;;;;14.10;8.50;;;;;;;;;;5070466;28;20499;-85
2022/01/15 09:37:55;;;;;;;10.67;6.13;;;;;;;;;;5069194;28;20421;-85
2022/01/15 09:40:23;;;;;;;18.97;7.33;;;;;;;;;;5067989;28;20456;-85
2022/01/15 09:42:50;;;;;;;11.57;7.63;;;;;;;;;;5070659;28;20425;-85
2022/01/15 09:45:17;;;;;;;12.80;7.83;;;;;;;;;;5074230;28;21403;-85
2022/01/15 09:47:44;;;;;;;11.37;6.93;;;;;;;;;;5070504;28;20525;-85
2022/01/15 09:50:14;;;;;;;12.77;7.70;;;;;;;;;;5067858;28;20885;-84
2022/01/15 09:52:41;;;;;;;12.83;7.90;;;;;;;;;;5071292;28;20421;-85
2022/01/15 09:55:09;;;;;;;13.87;7.60;;;;;;;;;;5069158;28;20495;-85
2022/01/15 09:57:36;;;;;;;16.77;8.73;;;;;;;;;;5073088;28;20417;-85
2022/01/15 10:00:04;;;;;;;10.30;7.27;;;;;;;;;;5071060;28;20452;-85
2022/01/15 10:02:30;;;;;;;13.97;6.80;;;;;;;;;;5071018;28;20414;-85
2022/01/15 10:04:56;;;;;;;11.80;7.13;;;;;;;;;;5070992;28;20443;-85
2022/01/15 10:07:27;;;;;;;11.30;6.70;;;;;;;;;;5076893;28;20425;-85
2022/01/15 10:09:58;;;;;;;14.13;6.70;;;;;;;;;;5069812;28;20452;-84
2022/01/15 10:12:31;;;;;;;13.10;6.80;;;;;;;;;;5073822;28;20499;-85
2022/01/15 10:15:01;;;;;;;13.23;6.20;;;;;;;;;;5076499;28;20167;-85
2022/01/15 10:17:28;;;;;;;16.00;6.47;;;;;;;;;;5073841;28;20504;-85
2022/01/15 10:19:58;;;;;;;11.50;6.50;;;;;;;;;;5070673;28;20432;-85
2022/01/15 10:22:25;;;;;;;13.10;6.43;;;;;;;;;;5073547;28;20494;-85
2022/01/15 10:25:02;;;;;;;13.07;5.77;;;;;;;;;;5068101;28;20174;-85
2022/01/15 10:27:31;;;;;;;12.50;5.73;;;;;;;;;;5070844;28;20449;-86
2022/01/15 10:30:14;;;;;;;12.70;6.60;;;;;;;;;;5073886;28;20265;-85
2022/01/15 10:32:42;;;;;;;16.13;6.60;;;;;;;;;;5065233;28;20178;-85
2022/01/15 10:35:12;;;;;;;15.50;6.67;;;;;;;;;;5073501;28;20183;-85
2022/01/15 10:37:49;;;;;;;14.40;6.53;;;;;;;;;;5066857;28;20171;-86
2022/01/15 10:40:16;;;;;;;16.13;6.40;;;;;;;;;;5069505;28;20182;-85
2022/01/15 10:42:42;;;;;;;16.87;7.00;;;;;;;;;;5070719;28;20202;-85
2022/01/15 10:45:12;;;;;;;14.97;6.80;;;;;;;;;;5069315;28;20182;-85
2022/01/15 10:47:43;;;;;;;17.17;6.63;;;;;;;;;;5066556;28;20261;-85
2022/01/15 10:50:10;;;;;;;11.90;6.40;;;;;;;;;;5069080;28;20310;-87
2022/01/15 10:52:36;;;;;;;12.07;6.50;;;;;;;;;;5067607;28;20190;-87
2022/01/15 10:55:02;;;;;;;11.93;6.60;;;;;;;;;;5073391;28;20179;-87
2022/01/15 10:57:31;;;;;;;13.70;5.97;;;;;;;;;;5074459;28;20178;-88
2022/01/15 11:00:13;;;;;;;13.13;6.77;;;;;;;;;;5069909;28;20166;-87
2022/01/15 11:02:50;;;;;;;10.90;5.47;;;;;;;;;;5077354;28;20171;-87
2022/01/15 11:05:36;;;;;;;11.90;6.50;;;;;;;;;;5073258;28;20439;-85
2022/01/15 11:08:08;;;;;;;14.93;7.10;;;;;;;;;;5069902;28;20936;-86
2022/01/15 11:10:38;;;;;;;12.33;6.63;;;;;;;;;;5068693;28;20199;-85
2022/01/15 11:13:07;;;;;;;14.07;7.20;;;;;;;;;;5070670;28;20577;-85
2022/01/15 11:15:34;;;;;;;14.20;7.83;;;;;;;;;;5072566;28;20171;-86
2022/01/15 11:18:02;;;;;;;14.20;8.00;;;;;;;;;;5065407;28;20516;-85
2022/01/15 11:20:30;;;;;;;16.27;7.37;;;;;;;;;;5071624;28;20830;-85
2022/01/15 11:22:56;;;;;;;15.80;7.77;;;;;;;;;;5072240;28;20174;-86
2022/01/15 11:25:23;;;;;;;12.03;6.27;;;;;;;;;;5065925;28;20275;-86
2022/01/15 11:27:49;;;;;;;13.03;5.93;;;;;;;;;;5068928;28;20266;-86
2022/01/15 11:30:18;;;;;;;13.53;6.77;;;;;;;;;;5066337;28;20195;-85
2022/01/15 11:32:44;;;;;;;10.73;6.40;;;;;;;;;;5069534;28;20265;-85
2022/01/15 11:35:11;;;;;;;14.07;6.57;;;;;;;;;;5070088;28;20171;-85
2022/01/15 11:37:46;;;;;;;10.63;6.97;;;;;;;;;;5071564;28;20175;-86
2022/01/15 11:40:36;;;;;;;13.10;7.40;;;;;;;;;;5069983;28;20194;-85
2022/01/15 11:43:30;;;;;;;14.77;8.50;;;;;;;;;;5063211;28;20996;-85
2022/01/15 11:46:02;;;;;;;16.50;8.30;;;;;;;;;;5048656;28;20994;-86
2022/01/15 11:48:30;;;;;;;12.23;7.30;;;;;;;;;;5065605;28;20186;-86
2022/01/15 11:51:14;;;;;;;12.43;7.83;;;;;;;;;;5065164;28;20198;-87
2022/01/15 11:54:00;;;;;;;13.63;7.63;;;;;;;;;;5068492;28;20196;-87
2022/01/15 11:56:27;;;;;;;13.63;7.53;;;;;;;;;;5069870;28;20871;-87
2022/01/15 11:58:54;;;;;;;13.97;7.53;;;;;;;;;;5071646;28;20437;-87
2022/01/15 12:01:37;;;;;;;11.17;7.57;;;;;;;;;;5074272;28;20635;-87
2022/01/15 12:04:22;;;;;;;16.27;7.93;;;;;;;;;;5074656;28;20202;-87
2022/01/15 12:07:06;;;;;;;11.60;7.70;;;;;;;;;;5072695;28;21036;-87
2022/01/15 12:09:40;;;;;;;16.57;9.50;;;;;;;;;;5075801;28;20256;-87
2022/01/15 12:12:19;;;;;;;15.57;9.13;;;;;;;;;;5078234;28;20181;-87
2022/01/15 12:14:58;;;;;;;22.17;9.90;;;;;;;;;;5071659;28;20360;-87
2022/01/15 12:17:27;;;;;;;16.00;10.13;;;;;;;;;;5073291;28;20224;-87
2022/01/15 12:19:54;;;;;;;14.63;9.17;;;;;;;;;;5074625;28;20262;-87
2022/01/15 12:22:43;;;;;;;15.30;10.23;;;;;;;;;;5071973;28;20226;-88
2022/01/15 12:25:13;;;;;;;16.93;10.60;;;;;;;;;;5074671;28;20206;-87
2022/01/15 12:27:40;;;;;;;14.93;9.83;;;;;;;;;;5070256;28;20175;-87
2022/01/15 12:30:23;;;;;;;15.87;10.10;;;;;;;;;;5073059;28;20203;-87
2022/01/15 12:32:51;;;;;;;18.27;10.67;;;;;;;;;;5074898;28;20182;-88
2022/01/15 12:35:21;;;;;;;17.10;10.67;;;;;;;;;;5075347;28;20239;-88
2022/01/15 12:38:02;;;;;;;18.33;10.93;;;;;;;;;;5071000;28;20171;-87
2022/01/15 12:40:29;;;;;;;27.67;12.03;;;;;;;;;;5071372;28;20252;-88
2022/01/15 12:42:56;;;;;;;19.03;11.23;;;;;;;;;;5079127;28;20179;-87
2022/01/15 12:45:22;;;;;;;18.30;11.80;;;;;;;;;;5077512;28;20179;-88
2022/01/15 12:47:48;;;;;;;19.03;11.63;;;;;;;;;;5077112;28;20179;-88
2022/01/15 12:50:15;;;;;;;19.47;11.60;;;;;;;;;;5073661;28;20270;-88
2022/01/15 12:52:41;;;;;;;16.30;11.60;;;;;;;;;;5066469;28;20248;-89
2022/01/15 12:55:08;;;;;;;21.70;12.23;;;;;;;;;;5069400;28;20190;-89
2022/01/15 12:57:47;;;;;;;20.47;12.53;;;;;;;;;;5070411;28;20267;-88
2022/01/15 13:00:27;;;;;;;20.70;13.37;;;;;;;;;;5071449;28;20171;-88
2022/01/15 13:02:54;;;;;;;21.20;13.73;;;;;;;;;;5072643;28;20190;-88
2022/01/15 13:05:21;;;;;;;23.17;14.73;;;;;;;;;;5066928;28;20238;-89
2022/01/15 13:07:47;;;;;;;21.50;14.30;;;;;;;;;;5070177;28;20226;-88
2022/01/15 13:10:33;;;;;;;24.80;15.13;;;;;;;;;;5066240;28;20194;-88
2022/01/15 13:12:59;;;;;;;24.23;15.30;;;;;;;;;;5067739;28;20183;-89
2022/01/15 13:15:26;;;;;;;20.80;14.50;;;;;;;;;;5072749;28;20183;-89
2022/01/15 13:17:52;;;;;;;21.07;15.10;;;;;;;;;;5075194;28;20175;-89
2022/01/15 13:20:28;;;;;;;22.97;14.53;;;;;;;;;;5069359;28;20179;-89
2022/01/15 13:22:55;;;;;;;21.80;15.07;;;;;;;;;;5072597;28;20182;-89
2022/01/15 13:25:22;;;;;;;23.97;14.87;;;;;;;;;;5069515;28;20899;-89
2022/01/15 13:27:48;;;;;;;23.10;15.47;;;;;;;;;;5071798;28;20166;-89
2022/01/15 13:30:14;;;;;;;30.33;15.30;;;;;;;;;;5067875;28;20280;-89
2022/01/15 13:32:56;;;;;;;23.73;14.13;;;;;;;;;;5070992;28;20177;-88
2022/01/15 13:35:25;;;;;;;24.83;15.97;;;;;;;;;;5069834;28;20748;-88
2022/01/15 13:37:52;;;;;;;28.10;17.50;;;;;;;;;;5071836;28;21129;-88
2022/01/15 13:40:32;;;;;;;27.37;17.73;;;;;;;;;;5073048;28;20179;-88
2022/01/15 13:42:58;;;;;;;28.67;17.60;;;;;;;;;;5073330;28;20182;-88
2022/01/15 13:45:28;;;;;;;27.53;18.37;;;;;;;;;;5067188;28;20221;-88
2022/01/15 13:47:54;;;;;;;29.37;18.37;;;;;;;;;;5067821;28;20187;-87
2022/01/15 13:53:27;;;;;;;28.97;19.23;;;;;;;;;;5068949;28;21038;-88
2022/01/15 13:56:08;;;;;;;30.07;19.30;;;;;;;;;;5069453;28;20762;-88
2022/01/15 13:58:34;;;;;;;29.30;18.47;;;;;;;;;;5071713;28;21946;-87
2022/01/15 14:01:15;;;;;;;28.20;18.70;;;;;;;;;;5071265;28;20318;-88
2022/01/15 14:03:41;;;;;;;32.03;19.37;;;;;;;;;;5073091;28;20175;-87
2022/01/15 14:06:07;;;;;;;30.33;18.83;;;;;;;;;;5070124;28;20174;-87
2022/01/15 14:08:33;;;;;;;29.37;19.47;;;;;;;;;;5072678;28;20191;-88
2022/01/15 14:10:59;;;;;;;30.97;19.83;;;;;;;;;;5070933;28;20241;-88
2022/01/15 14:13:29;;;;;;;28.17;20.20;;;;;;;;;;5076908;28;20808;-87
2022/01/15 14:15:55;;;;;;;27.90;20.83;;;;;;;;;;5067036;28;20221;-87
2022/01/15 14:18:30;;;;;;;32.43;20.87;;;;;;;;;;5061981;28;20637;-87
2022/01/15 14:23:28;;;;;;;30.43;21.00;;;;;;;;;;5064261;28;20215;-88
2022/01/15 14:25:55;;;;;;;30.70;21.97;;;;;;;;;;5070475;28;20206;-87
2022/01/15 14:28:23;;;;;;;35.07;23.17;;;;;;;;;;5071946;28;20262;-87
2022/01/15 14:30:52;;;;;;;30.63;22.20;;;;;;;;;;5069903;28;20196;-87
2022/01/15 14:33:18;;;;;;;31.93;23.10;;;;;;;;;;5066435;28;20216;-86
2022/01/15 14:35:45;;;;;;;35.90;24.37;;;;;;;;;;5067086;28;20177;-87
2022/01/15 14:38:12;;;;;;;37.43;24.20;;;;;;;;;;5073877;28;20186;-87
2022/01/15 14:40:38;;;;;;;36.07;24.17;;;;;;;;;;5067116;28;20176;-87
2022/01/15 14:43:04;;;;;;;35.87;24.23;;;;;;;;;;5069764;28;21065;-87
2022/01/15 14:45:30;;;;;;;38.50;25.73;;;;;;;;;;5067791;28;20277;-87
2022/01/15 14:47:57;;;;;;;36.50;24.77;;;;;;;;;;5065792;28;20222;-87
2022/01/15 14:50:23;;;;;;;36.73;25.47;;;;;;;;;;5063248;28;20238;-87
2022/01/15 14:52:49;;;;;;;37.37;25.33;;;;;;;;;;5081096;28;20200;-87